WetterOnline ( http://www.wetteronline.de )

Wetter aktuell Lübeck

Aktuelles Wetter: Lübeck/Blankensee (15m)

6-stündlich | Neueste Meldungen
Ortszeit Temperatur Wetter
Sa, 19.01. 7:00 -2.2° C bewölkt
Sa, 19.01. 1:00 0.4° C bedeckt
Fr, 18.01. 19:00 0.7° C bewölkt
Fr, 18.01. 13:00 1.4° C leicht bewölkt
Fr, 18.01. 7:00 -6.4° C wolkenlos
Fr, 18.01. 1:00 -1.4° C wolkig
Do, 17.01. 19:00 3.0° C bewölkt
Do, 17.01. 13:00 6.0° C bewölkt
Ortszeit Temperatur Wetter
Sa, 19.01. 12:50 2° C leicht bewölkt
Sa, 19.01. 12:30 0.7° C wolkig
Sa, 19.01. 12:20 0.7° C wolkig
Sa, 19.01. 12:10 0.8° C wolkig
Sa, 19.01. 12:00 -0.0° C leicht bewölkt
Sa, 19.01. 11:50 -0.0° C leicht bewölkt
Sa, 19.01. 11:30 -0.1° C leicht bewölkt
Sa, 19.01. 11:00 -0.9° C wolkenlos
Sa, 19.01. 10:30 -1.8° C wolkenlos
Sa, 19.01. 10:00 -2.6° C fast wolkenlos
Sa, 19.01. 9:30 -3.5° C wolkig
Ortszeit Relative Feuchte Sichtweite
Sa, 19.01. 7:00 97% 4.4 km
Sa, 19.01. 1:00 96% 4.6 km
Fr, 18.01. 19:00 94% 14 km
Fr, 18.01. 13:00 79% 19 km
Fr, 18.01. 7:00 93% 35 km
Fr, 18.01. 1:00 89% 55 km
Do, 17.01. 19:00 84% 45 km
Do, 17.01. 13:00 74% 40 km
Ortszeit Relative Feuchte Sichtweite
Sa, 19.01. 12:50 69% >10 km
Sa, 19.01. 12:30 72% 16 km
Sa, 19.01. 12:20 72% -
Sa, 19.01. 12:10 72% -
Sa, 19.01. 12:00 75% 15 km
Sa, 19.01. 11:50 75% -
Sa, 19.01. 11:30 74% 15 km
Sa, 19.01. 11:00 78% 15 km
Sa, 19.01. 10:30 84% 11 km
Sa, 19.01. 10:00 91% 7 km
Sa, 19.01. 9:30 98% 3.7 km
Ortszeit Niederschlagsmenge Niederschlagsart
Sa, 19.01. 7:00 0.0 l/m2 in 12 Std. -
Sa, 19.01. 1:00 0.0 l/m2 in 6 Std. -
Fr, 18.01. 19:00 0.0 l/m2 in 12 Std. -
Fr, 18.01. 13:00 0.0 l/m2 in 6 Std. -
Fr, 18.01. 7:00 7 l/m2 in 12 Std. Schnee
Fr, 18.01. 1:00 7 l/m2 in 6 Std. Schnee, Regen
Do, 17.01. 19:00 0.1 l/m2 in 12 Std. Regen
Do, 17.01. 13:00 0.1 l/m2 in 6 Std. Regen
Ortszeit Niederschlagsmenge Niederschlagsart
Sa, 19.01. 12:50 keine Meldung -
Sa, 19.01. 12:30 0.0 l/m2 in 1 Std. -
Sa, 19.01. 12:20 keine Meldung -
Sa, 19.01. 12:10 keine Meldung -
Sa, 19.01. 12:00 0.0 l/m2 in 1 Std. -
Sa, 19.01. 11:50 keine Meldung -
Sa, 19.01. 11:30 0.0 l/m2 in 1 Std. -
Sa, 19.01. 11:00 0.0 l/m2 in 1 Std. -
Sa, 19.01. 10:30 0.0 l/m2 in 1 Std. -
Sa, 19.01. 10:00 0.0 l/m2 in 1 Std. -
Sa, 19.01. 9:30 0.0 l/m2 in 1 Std. -
Ortszeit Stärke Spitze Richtung
km/h Bft. km/h Grad Sektor
Sa, 19.01. 7:00 4 1 14 180° S
Sa, 19.01. 1:00 4 1 22 220° SW
Fr, 18.01. 19:00 7 2 25 250° W
Fr, 18.01. 13:00 11 2 22 250° W
Fr, 18.01. 7:00 6 1 22 230° SW
Fr, 18.01. 1:00 13 3 31 320° NW
Do, 17.01. 19:00 14 3 43 250° W
Do, 17.01. 13:00 22 4 46 240° SW
Ortszeit Stärke Spitze Richtung
km/h Bft. km/h Grad Sektor
Sa, 19.01. 12:50 4 1 - 220° SW
Sa, 19.01. 12:30 4 1 7 250° W
Sa, 19.01. 12:20 4 1 - 250° W
Sa, 19.01. 12:10 4 1 - 200° S
Sa, 19.01. 12:00 4 1 11 190° S
Sa, 19.01. 11:50 4 1 - 190° S
Sa, 19.01. 11:30 2 1 9 220° SW
Sa, 19.01. 11:00 4 1 11 190° S
Sa, 19.01. 10:30 4 1 11 190° S
Sa, 19.01. 10:00 6 1 11 190° S
Sa, 19.01. 9:30 2 1 6 210° SW
Ortszeit Untergrenze Bedeckung Gattung
total tief tief mittel hoch
Sa, 19.01. 7:00 240 m 8/8 6/8 - - -
Sa, 19.01. 1:00 210 m 8/8 8/8 - - -
Fr, 18.01. 19:00 240 m 7/8 7/8 - - -
Fr, 18.01. 13:00 2700 m 2/8 2/8 - - -
Fr, 18.01. 7:00 - 0/8 0/8 - - -
Fr, 18.01. 1:00 3900 m 5/8 4/8 - - -
Do, 17.01. 19:00 1080 m 7/8 7/8 - - -
Do, 17.01. 13:00 720 m 8/8 7/8 - - -
Ortszeit Bedeckungsgrad in Achtel und Wolkenuntergrenze
Sa, 19.01. 12:50 1-2(690m)
Sa, 19.01. 12:30 5(690m)
Sa, 19.01. 12:20 5(690m)
Sa, 19.01. 12:10 6(690m)
Sa, 19.01. 12:00 2(660m)
Sa, 19.01. 11:50 2(660m)
Sa, 19.01. 11:30 3(600m)
Sa, 19.01. 11:00 1(570m)
Sa, 19.01. 10:30 keine Wolken
Sa, 19.01. 10:00 1(9000m)
Sa, 19.01. 9:30 1(270m) 7(9000m)
Ortszeit Luftdruck NN (hPa) Tendenz (hPa in 3 Std.)
Sa, 19.01. 7:00 1020 0,0
Sa, 19.01. 1:00 1020 + 0,3
Fr, 18.01. 19:00 1019 + 0,9
Fr, 18.01. 13:00 1017 + 0,8
Fr, 18.01. 7:00 1014 + 2,6
Fr, 18.01. 1:00 1008 + 4,7
Do, 17.01. 19:00 998 + 2,6
Do, 17.01. 13:00 995 - 0,7
Ortszeit Luftdruck NN (hPa) Tendenz (hPa in 3 Std.)
Sa, 19.01. 12:50 1020 keine Meldung
Sa, 19.01. 12:30 1021 + 0,1
Sa, 19.01. 12:20 1021 keine Meldung
Sa, 19.01. 12:10 1021 keine Meldung
Sa, 19.01. 12:00 1021 + 0,2
Sa, 19.01. 11:50 1021 keine Meldung
Sa, 19.01. 11:30 1021 + 0,6
Sa, 19.01. 11:00 1021 + 0,8
Sa, 19.01. 10:30 1021 + 0,9
Sa, 19.01. 10:00 1021 + 0,8
Sa, 19.01. 9:30 1020 + 0,7
Ortszeit Schneehöhe (cm)
Sa, 19.01. 7:00 2
Sa, 19.01. 1:00 2
Fr, 18.01. 19:00 3
Fr, 18.01. 13:00 4
Fr, 18.01. 7:00 5
Fr, 18.01. 1:00 6
Do, 17.01. 19:00 0
Do, 17.01. 13:00 0
Ortszeit Schneehöhe (cm)
Sa, 19.01. 12:50 -
Sa, 19.01. 12:30 2
Sa, 19.01. 12:20 2
Sa, 19.01. 12:10 2
Sa, 19.01. 12:00 2
Sa, 19.01. 11:50 2
Sa, 19.01. 11:30 2
Sa, 19.01. 11:00 2
Sa, 19.01. 10:30 2
Sa, 19.01. 10:00 2
Sa, 19.01. 9:30 2
Link zu dieser Seite / Seite empfehlen

Das Wetter in ...